createdAt,value
2018-06-05T00:00:06.724Z,40.30
2018-06-05T00:01:06.742Z,40.90
2018-06-05T00:02:06.763Z,41.60
2018-06-05T00:03:06.787Z,40.90
2018-06-05T00:04:06.808Z,39.80
2018-06-05T00:05:06.842Z,44.30
2018-06-05T00:06:06.852Z,38.80
2018-06-05T00:07:06.866Z,36.90
2018-06-05T00:08:06.890Z,42.60
2018-06-05T00:09:06.923Z,40.60
2018-06-05T00:10:06.928Z,39.50
2018-06-05T00:11:06.949Z,38.90
2018-06-05T00:12:06.973Z,37.70
2018-06-05T00:13:06.995Z,37.70
2018-06-05T00:14:07.015Z,40.30
2018-06-05T00:15:07.031Z,37.90
2018-06-05T00:16:07.089Z,37.60
2018-06-05T00:17:07.116Z,35.60
2018-06-05T00:18:07.095Z,37.10
2018-06-05T00:19:07.117Z,38.60
2018-06-05T00:20:07.147Z,36.50
2018-06-05T00:21:07.170Z,39.20
2018-06-05T00:22:07.186Z,39.70
2018-06-05T00:23:07.208Z,37.30
2018-06-05T00:24:07.228Z,38.10
2018-06-05T00:25:07.245Z,38.90
2018-06-05T00:26:07.275Z,42.80
2018-06-05T00:27:07.300Z,39.10
2018-06-05T00:28:07.312Z,36.30
2018-06-05T00:29:07.349Z,39.90
2018-06-05T00:30:07.369Z,39.60
2018-06-05T00:31:07.376Z,38.50
2018-06-05T00:32:07.391Z,38.30
2018-06-05T00:33:07.450Z,38.60
2018-06-05T00:34:07.457Z,38.00
2018-06-05T00:35:07.472Z,41.40
2018-06-05T00:36:07.480Z,36.10
2018-06-05T00:37:07.505Z,37.60
2018-06-05T00:38:07.560Z,37.00
2018-06-05T00:39:07.538Z,41.20
2018-06-05T00:40:07.568Z,37.80
2018-06-05T00:41:07.576Z,40.10
2018-06-05T00:42:07.627Z,38.20
2018-06-05T00:43:07.619Z,40.70
2018-06-05T00:44:07.641Z,39.40
2018-06-05T00:45:07.660Z,37.00
2018-06-05T00:46:07.681Z,35.60
2018-06-05T00:47:07.726Z,39.20
2018-06-05T00:48:07.736Z,40.60
2018-06-05T00:49:07.755Z,39.70
2018-06-05T00:50:07.778Z,34.20
2018-06-05T00:51:07.793Z,38.30
2018-06-05T00:52:07.817Z,38.40
2018-06-05T00:53:07.835Z,37.70
2018-06-05T00:54:07.864Z,32.30
2018-06-05T00:55:07.886Z,37.40
2018-06-05T00:56:07.900Z,37.00
2018-06-05T00:57:07.939Z,36.50
2018-06-05T00:58:07.951Z,36.20
2018-06-05T00:59:07.992Z,35.00
2018-06-05T01:00:08.001Z,32.60
2018-06-05T01:01:07.999Z,35.10
2018-06-05T01:02:08.024Z,34.60
2018-06-05T01:03:08.053Z,34.50
2018-06-05T01:04:08.065Z,35.50
2018-06-05T01:05:08.098Z,34.20
2018-06-05T01:06:08.114Z,31.60
2018-06-05T01:07:08.131Z,32.20
2018-06-05T01:08:08.147Z,31.40
2018-06-05T01:09:08.171Z,35.00
2018-06-05T01:10:08.187Z,32.70
2018-06-05T01:11:08.222Z,30.40
2018-06-05T01:12:08.241Z,32.70
2018-06-05T01:13:08.256Z,33.00
2018-06-05T01:14:08.297Z,31.50
2018-06-05T01:15:08.324Z,30.90
2018-06-05T01:16:08.338Z,32.80
2018-06-05T01:17:08.342Z,31.10
2018-06-05T01:18:08.367Z,31.10
2018-06-05T01:19:08.385Z,30.10
2018-06-05T01:20:08.414Z,34.50
2018-06-05T01:21:08.426Z,34.50
2018-06-05T01:22:08.451Z,36.60
2018-06-05T01:23:08.491Z,33.90
2018-06-05T01:24:08.492Z,35.40
2018-06-05T01:25:08.537Z,35.00
2018-06-05T01:26:08.530Z,34.90
2018-06-05T01:27:08.551Z,37.10
2018-06-05T01:28:08.581Z,36.10
2018-06-05T01:29:08.610Z,38.10
2018-06-05T01:30:08.703Z,38.10
2018-06-05T01:31:08.643Z,38.50
2018-06-05T01:32:08.661Z,42.00
2018-06-05T01:33:08.681Z,45.60
2018-06-05T01:34:08.711Z,44.30
2018-06-05T01:35:08.733Z,44.10
2018-06-05T01:36:08.745Z,46.20
2018-06-05T01:37:08.776Z,46.60
2018-06-05T01:38:08.791Z,49.30
2018-06-05T01:39:08.817Z,46.70
2018-06-05T01:40:08.839Z,51.20
2018-06-05T01:41:08.861Z,48.20
2018-06-05T01:42:08.874Z,49.40
2018-06-05T01:43:08.886Z,58.70
2018-06-05T01:44:08.914Z,57.00
2018-06-05T01:45:08.934Z,63.60
2018-06-05T01:46:08.961Z,58.20
2018-06-05T01:47:08.989Z,56.90
2018-06-05T01:48:09.012Z,60.70
2018-06-05T01:49:09.037Z,58.90
2018-06-05T01:50:09.058Z,62.70
2018-06-05T01:51:09.085Z,62.90
2018-06-05T01:52:09.082Z,61.40
2018-06-05T01:53:09.105Z,67.80
2018-06-05T01:54:09.119Z,60.80
2018-06-05T01:55:09.159Z,65.50
2018-06-05T01:56:09.184Z,64.60
2018-06-05T01:57:09.219Z,59.00
2018-06-05T01:58:09.218Z,61.00
2018-06-05T01:59:09.258Z,60.80
2018-06-05T02:00:09.281Z,63.40
2018-06-05T02:01:09.273Z,68.90
2018-06-05T02:02:09.290Z,62.80
2018-06-05T02:03:09.326Z,61.10
2018-06-05T02:04:09.337Z,63.80
2018-06-05T02:05:09.356Z,67.40
2018-06-05T02:06:09.386Z,65.20
2018-06-05T02:07:09.396Z,65.80
2018-06-05T02:08:09.445Z,69.50
2018-06-05T02:09:09.440Z,67.70
2018-06-05T02:10:09.457Z,66.10
2018-06-05T02:11:09.502Z,71.60
2018-06-05T02:12:09.499Z,67.60
2018-06-05T02:13:09.522Z,72.30
2018-06-05T02:14:09.547Z,67.40
2018-06-05T02:15:09.573Z,67.40
2018-06-05T02:16:09.583Z,67.90
2018-06-05T02:17:09.619Z,68.90
2018-06-05T02:18:09.628Z,71.80
2018-06-05T02:19:09.648Z,72.10
2018-06-05T02:20:09.662Z,76.40
2018-06-05T02:21:09.687Z,73.00
2018-06-05T02:22:09.722Z,73.80
2018-06-05T02:23:09.747Z,73.60
2018-06-05T02:24:09.753Z,75.10
2018-06-05T02:25:09.772Z,72.50
2018-06-05T02:26:09.792Z,72.80
2018-06-05T02:27:09.814Z,75.50
2018-06-05T02:28:09.849Z,76.00
2018-06-05T02:29:09.882Z,72.90
2018-06-05T02:30:09.911Z,75.10
2018-06-05T02:31:09.905Z,79.50
2018-06-05T02:32:09.943Z,77.30
2018-06-05T02:33:09.966Z,75.10
2018-06-05T02:34:09.970Z,75.30
2018-06-05T02:35:09.988Z,72.10
2018-06-05T02:36:10.005Z,77.10
2018-06-05T02:37:10.025Z,76.30
2018-06-05T02:38:10.063Z,77.40
2018-06-05T02:39:10.075Z,80.60
2018-06-05T02:40:10.093Z,75.70
2018-06-05T02:41:10.112Z,74.00
2018-06-05T02:42:10.128Z,74.20
2018-06-05T02:43:10.182Z,71.90
2018-06-05T02:44:10.178Z,74.50
2018-06-05T02:45:10.190Z,74.40
2018-06-05T02:46:10.228Z,74.60
2018-06-05T02:47:10.235Z,73.90
2018-06-05T02:48:10.258Z,74.90
2018-06-05T02:49:10.282Z,75.70
2018-06-05T02:50:10.300Z,70.80
2018-06-05T02:51:10.368Z,73.50
2018-06-05T02:52:10.342Z,74.80
2018-06-05T02:53:10.361Z,76.90
2018-06-05T02:54:10.416Z,69.20
2018-06-05T02:55:10.407Z,71.10
2018-06-05T02:56:10.422Z,69.80
2018-06-05T02:57:10.445Z,73.10
2018-06-05T02:58:10.467Z,71.60
2018-06-05T02:59:10.488Z,70.80
2018-06-05T03:00:10.510Z,77.50
2018-06-05T03:01:10.531Z,67.80
2018-06-05T03:02:10.560Z,73.20
2018-06-05T03:03:10.571Z,70.00
2018-06-05T03:04:10.607Z,68.30
2018-06-05T03:05:10.612Z,63.20
2018-06-05T03:06:10.630Z,63.10
2018-06-05T03:07:10.644Z,65.40
2018-06-05T03:08:10.680Z,61.80
2018-06-05T03:09:10.691Z,66.10
2018-06-05T03:10:10.711Z,73.20
2018-06-05T03:11:10.744Z,63.50
2018-06-05T03:12:10.777Z,60.90
2018-06-05T03:13:10.774Z,58.20
2018-06-05T03:14:10.822Z,55.90
2018-06-05T03:15:10.826Z,61.40
2018-06-05T03:16:10.848Z,57.60
2018-06-05T03:17:10.862Z,59.20
2018-06-05T03:18:10.887Z,57.50
2018-06-05T03:19:10.896Z,59.30
2018-06-05T03:20:10.919Z,53.40
2018-06-05T03:21:10.942Z,54.20
2018-06-05T03:22:10.958Z,59.00
2018-06-05T03:23:10.997Z,51.20
2018-06-05T03:24:11.001Z,50.30
2018-06-05T03:25:11.034Z,57.10
2018-06-05T03:26:11.042Z,50.60
2018-06-05T03:27:11.065Z,54.70
2018-06-05T03:28:11.086Z,54.80
2018-06-05T03:29:11.109Z,48.10
2018-06-05T03:30:11.149Z,52.60
2018-06-05T03:31:11.153Z,53.90
2018-06-05T03:32:11.167Z,51.80
2018-06-05T03:33:11.189Z,48.00
2018-06-05T03:34:11.210Z,52.30
2018-06-05T03:35:11.237Z,49.70
2018-06-05T03:36:11.257Z,48.70
2018-06-05T03:37:11.278Z,49.50
2018-06-05T03:38:11.296Z,46.60
2018-06-05T03:39:11.314Z,45.20
2018-06-05T03:40:11.346Z,48.20
2018-06-05T03:41:11.356Z,45.70
2018-06-05T03:42:11.384Z,46.90
2018-06-05T03:43:11.407Z,48.30
2018-06-05T03:44:11.417Z,49.20
2018-06-05T03:45:11.436Z,47.10
2018-06-05T03:46:11.459Z,46.30
2018-06-05T03:47:11.476Z,50.90
2018-06-05T03:48:11.496Z,46.80
2018-06-05T03:49:11.517Z,44.30
2018-06-05T03:50:11.570Z,44.00
2018-06-05T03:51:11.623Z,44.80
2018-06-05T03:52:11.611Z,48.10
2018-06-05T03:53:11.606Z,46.10
2018-06-05T03:54:11.637Z,47.70
2018-06-05T03:55:11.644Z,46.50
2018-06-05T03:56:11.662Z,47.00
2018-06-05T03:57:11.740Z,48.80
2018-06-05T03:58:11.704Z,48.10
2018-06-05T03:59:11.725Z,45.70
2018-06-05T04:00:11.766Z,47.90
2018-06-05T04:01:11.764Z,50.40
2018-06-05T04:02:11.789Z,46.60
2018-06-05T04:03:11.811Z,52.00
2018-06-05T04:04:11.827Z,48.60
2018-06-05T04:05:11.849Z,48.90
2018-06-05T04:06:11.868Z,48.40
2018-06-05T04:07:11.895Z,51.50
2018-06-05T04:08:11.917Z,45.80
2018-06-05T04:09:11.941Z,52.20
2018-06-05T04:10:11.948Z,48.80
2018-06-05T04:11:11.969Z,48.10
2018-06-05T04:12:11.995Z,47.80
2018-06-05T04:13:12.033Z,46.10
2018-06-05T04:14:12.045Z,45.30
2018-06-05T04:15:12.056Z,49.20
2018-06-05T04:16:12.079Z,47.30
2018-06-05T04:17:12.117Z,45.70
2018-06-05T04:18:12.126Z,45.80
2018-06-05T04:19:12.140Z,52.10
2018-06-05T04:20:12.164Z,46.90
2018-06-05T04:21:12.198Z,50.50
2018-06-05T04:22:12.198Z,46.70
2018-06-05T04:23:12.233Z,50.70
2018-06-05T04:24:12.238Z,48.90
2018-06-05T04:25:12.261Z,43.50
2018-06-05T04:26:12.284Z,49.10
2018-06-05T04:27:12.353Z,47.80
2018-06-05T04:28:12.355Z,42.70
2018-06-05T04:29:12.344Z,47.40
2018-06-05T04:30:12.378Z,46.80
2018-06-05T04:31:12.393Z,43.90
2018-06-05T04:32:12.415Z,44.80
2018-06-05T04:33:12.437Z,44.10
2018-06-05T04:34:12.453Z,47.10
2018-06-05T04:35:12.467Z,44.60
2018-06-05T04:36:12.530Z,43.40
2018-06-05T04:37:12.525Z,48.70
2018-06-05T04:38:12.535Z,46.10
2018-06-05T04:39:12.557Z,47.90
2018-06-05T04:40:12.588Z,43.60
2018-06-05T04:41:12.597Z,44.70
2018-06-05T04:42:12.622Z,44.20
2018-06-05T04:43:12.630Z,46.80
2018-06-05T04:44:12.655Z,46.60
2018-06-05T04:45:12.677Z,44.10
2018-06-05T04:46:12.695Z,42.60
2018-06-05T04:47:12.713Z,43.00
2018-06-05T04:48:12.740Z,50.60
2018-06-05T04:49:12.763Z,45.70
2018-06-05T04:50:12.785Z,42.70
2018-06-05T04:51:12.805Z,43.20
2018-06-05T04:52:12.836Z,42.80
2018-06-05T04:53:12.884Z,42.80
2018-06-05T04:54:12.859Z,41.90
2018-06-05T04:55:12.878Z,43.30
2018-06-05T04:56:12.901Z,47.40
2018-06-05T04:57:12.920Z,43.90
2018-06-05T04:58:12.937Z,46.90
2018-06-05T04:59:12.984Z,40.90
2018-06-05T05:00:12.980Z,43.90
2018-06-05T05:01:13.000Z,42.50
2018-06-05T05:02:13.021Z,44.10
2018-06-05T05:03:13.043Z,43.80
2018-06-05T05:04:13.063Z,43.00
2018-06-05T05:05:13.119Z,47.30
2018-06-05T05:06:13.111Z,44.50
2018-06-05T05:07:13.122Z,42.00
2018-06-05T05:08:13.143Z,45.10
2018-06-05T05:09:13.165Z,47.60
2018-06-05T05:10:13.191Z,44.80
2018-06-05T05:11:13.211Z,44.80
2018-06-05T05:12:13.224Z,43.30
2018-06-05T05:13:13.248Z,48.10
2018-06-05T05:14:13.267Z,44.30
2018-06-05T05:15:13.293Z,47.50
2018-06-05T05:16:13.326Z,42.80
2018-06-05T05:17:13.351Z,41.70
2018-06-05T05:18:13.361Z,42.60
2018-06-05T05:19:13.379Z,44.20
2018-06-05T05:20:13.397Z,45.40
2018-06-05T05:21:13.427Z,42.70
2018-06-05T05:22:13.444Z,43.70
2018-06-05T05:23:13.463Z,45.60
2018-06-05T05:24:13.480Z,45.00
2018-06-05T05:25:13.506Z,40.50
2018-06-05T05:26:13.528Z,43.80
2018-06-05T05:27:13.544Z,46.80
2018-06-05T05:28:13.563Z,44.40
2018-06-05T05:29:13.595Z,48.70
2018-06-05T05:30:13.606Z,40.90
2018-06-05T05:31:13.622Z,39.80
2018-06-05T05:32:13.661Z,43.20
2018-06-05T05:33:13.665Z,42.50
2018-06-05T05:34:13.697Z,42.50
2018-06-05T05:35:13.729Z,41.60
2018-06-05T05:36:13.736Z,40.30
2018-06-05T05:37:13.746Z,43.90
2018-06-05T05:38:13.772Z,43.80
2018-06-05T05:39:13.831Z,45.40
2018-06-05T05:40:13.829Z,41.70
2018-06-05T05:41:13.837Z,42.00
2018-06-05T05:42:13.858Z,40.70
2018-06-05T05:43:13.901Z,41.30
2018-06-05T05:44:13.895Z,44.80
2018-06-05T05:45:13.927Z,40.70
2018-06-05T05:46:13.942Z,41.80
2018-06-05T05:47:13.961Z,42.50
2018-06-05T05:48:13.981Z,45.00
2018-06-05T05:49:14.023Z,42.30
2018-06-05T05:50:14.039Z,42.80
2018-06-05T05:51:14.067Z,47.50
2018-06-05T05:52:14.071Z,46.80
2018-06-05T05:53:14.109Z,44.90
2018-06-05T05:54:14.110Z,46.90
2018-06-05T05:55:14.149Z,47.20
2018-06-05T05:56:14.152Z,45.80
2018-06-05T05:57:14.186Z,44.30
2018-06-05T05:58:14.201Z,45.30
2018-06-05T05:59:14.217Z,43.70
2018-06-05T06:00:14.264Z,41.50
2018-06-05T06:01:14.255Z,45.30
2018-06-05T06:02:14.391Z,46.80
2018-06-05T06:03:14.296Z,46.90
2018-06-05T06:04:14.318Z,48.60
2018-06-05T06:05:14.336Z,50.10
2018-06-05T06:06:14.363Z,48.40
2018-06-05T06:07:14.396Z,50.00
2018-06-05T06:08:14.410Z,51.80
2018-06-05T06:09:14.431Z,53.20
2018-06-05T06:10:14.470Z,55.00
2018-06-05T06:11:14.470Z,56.80
2018-06-05T06:12:14.493Z,52.90
2018-06-05T06:13:14.521Z,55.50
2018-06-05T06:14:14.531Z,61.20
2018-06-05T06:15:14.568Z,56.70
2018-06-05T06:16:14.584Z,59.10
2018-06-05T06:17:14.614Z,58.70
2018-06-05T06:18:14.619Z,59.90
2018-06-05T06:19:14.638Z,57.30
2018-06-05T06:20:14.658Z,65.50
2018-06-05T06:21:14.677Z,58.80
2018-06-05T06:22:14.699Z,60.20
2018-06-05T06:23:14.721Z,59.30
2018-06-05T06:24:14.759Z,57.60
2018-06-05T06:25:14.816Z,58.90
2018-06-05T06:26:14.784Z,58.60
2018-06-05T06:27:14.805Z,56.90
2018-06-05T06:28:14.837Z,59.20
2018-06-05T06:29:14.853Z,56.70
2018-06-05T06:30:14.864Z,64.00
2018-06-05T06:31:14.903Z,67.20
2018-06-05T06:32:14.906Z,64.60
2018-06-05T06:33:14.929Z,60.40
2018-06-05T06:34:14.954Z,60.50
2018-06-05T06:35:14.973Z,60.40
2018-06-05T06:36:14.998Z,62.50
2018-06-05T06:37:15.012Z,62.00
2018-06-05T06:38:15.029Z,59.70
2018-06-05T06:39:15.083Z,59.70
2018-06-05T06:40:15.082Z,60.20
2018-06-05T06:41:15.111Z,60.60
2018-06-05T06:42:15.118Z,57.90
2018-06-05T06:43:15.146Z,58.00
2018-06-05T06:44:15.162Z,56.50
2018-06-05T06:45:15.185Z,57.90
2018-06-05T06:46:15.204Z,57.00
2018-06-05T06:47:15.219Z,61.90
2018-06-05T06:48:15.240Z,56.80
2018-06-05T06:49:15.261Z,59.90
2018-06-05T06:50:15.275Z,59.00
2018-06-05T06:51:15.304Z,57.40
2018-06-05T06:52:15.324Z,59.90
2018-06-05T06:53:15.344Z,63.20
2018-06-05T06:54:15.362Z,60.30
2018-06-05T06:55:15.406Z,58.30
2018-06-05T06:56:15.418Z,57.30
2018-06-05T06:57:15.429Z,59.00
2018-06-05T06:58:15.450Z,61.20
2018-06-05T06:59:15.510Z,62.50
2018-06-05T07:00:15.501Z,61.10
2018-06-05T07:01:15.511Z,60.60
2018-06-05T07:02:15.578Z,65.00
2018-06-05T07:03:15.553Z,57.80
2018-06-05T07:04:15.569Z,60.00
2018-06-05T07:05:15.596Z,61.30
2018-06-05T07:06:15.610Z,61.60
2018-06-05T07:07:15.629Z,58.30
2018-06-05T07:08:15.664Z,56.50
2018-06-05T07:09:15.681Z,54.30
2018-06-05T07:10:15.704Z,55.20
2018-06-05T07:11:15.721Z,56.50
2018-06-05T07:12:15.750Z,54.20
2018-06-05T07:13:15.764Z,55.40
2018-06-05T07:14:15.773Z,55.70
2018-06-05T07:15:15.797Z,57.90
2018-06-05T07:16:15.817Z,55.30
2018-06-05T07:17:15.839Z,55.70
2018-06-05T07:18:15.892Z,60.80
2018-06-05T07:19:15.888Z,60.40
2018-06-05T07:20:15.902Z,58.20
2018-06-05T07:21:15.929Z,60.40
2018-06-05T07:22:15.969Z,58.40
2018-06-05T07:23:15.987Z,55.50
2018-06-05T07:24:15.989Z,60.30
2018-06-05T07:25:16.015Z,59.50
2018-06-05T07:26:16.041Z,59.40
2018-06-05T07:27:16.044Z,59.20
2018-06-05T07:28:16.073Z,57.00
2018-06-05T07:29:16.092Z,56.00
2018-06-05T07:30:16.182Z,53.80
2018-06-05T07:31:16.160Z,53.00
2018-06-05T07:32:16.159Z,52.60
2018-06-05T07:33:16.203Z,55.70
2018-06-05T07:34:16.190Z,58.20
2018-06-05T07:35:16.212Z,53.40
2018-06-05T07:36:16.272Z,53.60
2018-06-05T07:37:16.253Z,55.60
2018-06-05T07:38:16.279Z,53.70
2018-06-05T07:39:16.316Z,54.30
2018-06-05T07:40:16.317Z,51.70
2018-06-05T07:41:16.335Z,54.20
2018-06-05T07:42:16.360Z,55.00
2018-06-05T07:43:16.388Z,50.40
2018-06-05T07:44:16.441Z,53.00
2018-06-05T07:45:16.421Z,52.80
2018-06-05T07:46:16.446Z,60.70
2018-06-05T07:47:16.463Z,53.20
2018-06-05T07:48:16.490Z,50.40
2018-06-05T07:49:16.510Z,50.50
2018-06-05T07:50:16.561Z,54.00
2018-06-05T07:51:16.547Z,52.30
2018-06-05T07:52:16.573Z,53.90
2018-06-05T07:53:16.596Z,56.30
2018-06-05T07:54:16.607Z,51.80
2018-06-05T07:55:16.631Z,56.60
2018-06-05T07:56:16.662Z,54.20
2018-06-05T07:57:16.672Z,52.40
2018-06-05T07:58:16.686Z,52.20
2018-06-05T07:59:16.728Z,50.30
2018-06-05T08:00:16.734Z,54.20
2018-06-05T08:01:16.752Z,51.00
2018-06-05T08:02:16.780Z,51.10
2018-06-05T08:03:16.796Z,51.50
2018-06-05T08:04:16.831Z,51.70
2018-06-05T08:05:16.852Z,48.60
2018-06-05T08:06:16.862Z,48.20
2018-06-05T08:07:16.882Z,49.60
2018-06-05T08:08:16.903Z,49.50
2018-06-05T08:09:16.925Z,53.00
2018-06-05T08:10:16.943Z,50.10
2018-06-05T08:11:16.975Z,50.40
2018-06-05T08:12:16.985Z,49.80
2018-06-05T08:13:17.013Z,44.10
2018-06-05T08:14:17.026Z,50.90
2018-06-05T08:15:17.071Z,45.90
2018-06-05T08:16:17.080Z,44.60
2018-06-05T08:17:17.101Z,46.10
2018-06-05T08:18:17.114Z,48.70
2018-06-05T08:19:17.148Z,47.00
2018-06-05T08:20:17.163Z,44.60
2018-06-05T08:21:17.179Z,47.20
2018-06-05T08:22:17.207Z,48.70
2018-06-05T08:23:17.245Z,42.80
2018-06-05T08:24:17.259Z,45.50
2018-06-05T08:25:17.262Z,44.10
2018-06-05T08:26:17.283Z,47.80
2018-06-05T08:27:17.315Z,47.40
2018-06-05T08:28:17.329Z,43.10
2018-06-05T08:29:17.356Z,44.90
2018-06-05T08:30:17.384Z,44.40
2018-06-05T08:31:17.400Z,43.10
2018-06-05T08:32:17.429Z,44.00
2018-06-05T08:33:17.438Z,43.40
2018-06-05T08:34:17.462Z,47.30
2018-06-05T08:35:17.476Z,43.50
2018-06-05T08:36:17.514Z,42.20
2018-06-05T08:37:17.517Z,45.00
2018-06-05T08:38:17.548Z,44.00
2018-06-05T08:39:17.561Z,47.70
2018-06-05T08:40:17.589Z,44.80
2018-06-05T08:41:17.615Z,45.70
2018-06-05T08:42:17.629Z,48.10
2018-06-05T08:43:17.647Z,44.00
2018-06-05T08:44:17.670Z,42.20
2018-06-05T08:45:17.761Z,44.60
2018-06-05T08:46:17.720Z,44.70
2018-06-05T08:47:17.751Z,39.60
2018-06-05T08:48:17.760Z,41.70
2018-06-05T08:49:17.785Z,42.60
2018-06-05T08:50:17.793Z,43.40
2018-06-05T08:51:17.837Z,41.50
2018-06-05T08:52:17.847Z,41.40
2018-06-05T08:53:17.868Z,41.10
2018-06-05T08:54:17.918Z,39.10
2018-06-05T08:55:17.909Z,43.20
2018-06-05T08:56:17.938Z,41.90
2018-06-05T08:57:17.971Z,45.10
2018-06-05T08:58:17.978Z,43.70
2018-06-05T08:59:18.005Z,41.60
2018-06-05T09:00:18.026Z,41.60
2018-06-05T09:01:18.050Z,44.70
2018-06-05T09:02:18.056Z,43.70
2018-06-05T09:03:18.102Z,39.70
2018-06-05T09:04:18.118Z,39.20
2018-06-05T09:05:18.184Z,38.00
2018-06-05T09:06:18.149Z,39.60
2018-06-05T09:07:18.189Z,40.90
2018-06-05T09:08:18.196Z,41.60
2018-06-05T09:09:18.214Z,36.90
2018-06-05T09:10:18.235Z,37.30
2018-06-05T09:11:18.267Z,38.00
2018-06-05T09:12:18.287Z,40.00
2018-06-05T09:13:18.305Z,38.60
2018-06-05T09:14:18.332Z,41.60
2018-06-05T09:15:18.347Z,41.40
2018-06-05T09:16:18.368Z,36.40
2018-06-05T09:17:18.391Z,37.40
2018-06-05T09:18:18.416Z,35.40
2018-06-05T09:19:18.439Z,39.10
2018-06-05T09:20:18.456Z,36.20
2018-06-05T09:21:18.481Z,35.60
2018-06-05T09:22:18.503Z,47.20
2018-06-05T09:23:18.526Z,37.20
2018-06-05T09:24:18.535Z,39.00
2018-06-05T09:25:18.560Z,38.60
2018-06-05T09:26:18.579Z,37.80
2018-06-05T09:27:18.603Z,38.00
2018-06-05T09:28:18.650Z,34.80
2018-06-05T09:29:18.660Z,33.30
2018-06-05T09:30:18.702Z,36.90
2018-06-05T09:31:18.699Z,35.10
2018-06-05T09:32:18.714Z,34.30
2018-06-05T09:33:18.743Z,35.30
2018-06-05T09:34:18.805Z,30.70
2018-06-05T09:35:18.808Z,34.90
2018-06-05T09:36:18.835Z,33.20
2018-06-05T09:37:18.842Z,34.80
2018-06-05T09:38:18.852Z,37.40
2018-06-05T09:39:18.880Z,33.70
2018-06-05T09:40:18.892Z,31.60
2018-06-05T09:41:18.924Z,33.50
2018-06-05T09:42:18.961Z,33.80
2018-06-05T09:43:18.971Z,31.90
2018-06-05T09:44:18.980Z,34.50
2018-06-05T09:45:19.055Z,35.70
2018-06-05T09:46:19.021Z,31.10
2018-06-05T09:47:19.061Z,29.30
2018-06-05T09:48:19.090Z,36.60
2018-06-05T09:49:19.111Z,31.70
2018-06-05T09:50:19.119Z,33.70
2018-06-05T09:51:19.136Z,37.80
2018-06-05T09:52:19.170Z,33.50
2018-06-05T09:53:19.182Z,33.70
2018-06-05T09:54:19.210Z,34.30
2018-06-05T09:55:19.237Z,32.10
2018-06-05T09:56:19.257Z,31.80
2018-06-05T09:57:19.276Z,35.40
2018-06-05T09:58:19.395Z,32.70
2018-06-05T09:59:19.346Z,35.90
2018-06-05T10:00:19.359Z,30.80
2018-06-05T10:01:19.356Z,36.50
2018-06-05T10:02:19.378Z,32.00
2018-06-05T10:03:19.439Z,29.30
2018-06-05T10:04:19.460Z,31.00
2018-06-05T10:05:19.465Z,30.10
2018-06-05T10:06:19.506Z,30.60
2018-06-05T10:07:19.498Z,32.70
2018-06-05T10:08:19.531Z,32.30
2018-06-05T10:09:19.551Z,31.80
2018-06-05T10:10:19.575Z,29.20
2018-06-05T10:11:19.585Z,32.50
2018-06-05T10:12:19.615Z,35.00
2018-06-05T10:13:19.648Z,34.50
2018-06-05T10:14:19.666Z,30.40
2018-06-05T10:15:19.676Z,30.50
2018-06-05T10:16:19.741Z,33.30
2018-06-05T10:17:19.737Z,33.30
2018-06-05T10:18:19.765Z,32.60
2018-06-05T10:19:19.771Z,31.70
2018-06-05T10:20:19.825Z,35.10
2018-06-05T10:21:19.825Z,34.00
2018-06-05T10:22:19.859Z,30.70
2018-06-05T10:23:19.868Z,32.60
2018-06-05T10:24:19.899Z,30.50
2018-06-05T10:25:19.908Z,29.60
2018-06-05T10:26:19.931Z,33.90
2018-06-05T10:27:19.966Z,34.10
2018-06-05T10:28:19.991Z,30.10
2018-06-05T10:29:20.020Z,28.10
2018-06-05T10:30:20.032Z,32.60
2018-06-05T10:31:20.063Z,31.00
2018-06-05T10:32:20.095Z,31.20
2018-06-05T10:33:20.107Z,32.10
2018-06-05T10:34:20.129Z,31.90
2018-06-05T10:35:20.153Z,31.00
2018-06-05T10:36:20.172Z,32.10
2018-06-05T10:37:20.211Z,31.20
2018-06-05T10:38:20.217Z,31.20
2018-06-05T10:39:20.232Z,33.20
2018-06-05T10:40:20.256Z,34.80
2018-06-05T10:41:20.309Z,33.80
2018-06-05T10:42:20.328Z,34.10
2018-06-05T10:43:20.326Z,35.50
2018-06-05T10:44:20.357Z,31.20
2018-06-05T10:45:20.389Z,32.70
2018-06-05T10:46:20.414Z,31.10
2018-06-05T10:47:20.427Z,30.40
2018-06-05T10:48:20.487Z,33.80
2018-06-05T10:49:20.472Z,33.30
2018-06-05T10:50:20.497Z,32.70
2018-06-05T10:51:20.521Z,34.00
2018-06-05T10:52:20.541Z,30.60
2018-06-05T10:53:20.558Z,32.00
2018-06-05T10:54:20.588Z,33.20
2018-06-05T10:55:20.622Z,31.90
2018-06-05T10:56:20.647Z,27.60
2018-06-05T10:57:20.677Z,33.00
2018-06-05T10:58:20.675Z,29.90
2018-06-05T10:59:20.725Z,32.20
2018-06-05T11:00:20.760Z,31.10
2018-06-05T11:01:20.768Z,32.90
2018-06-05T11:02:20.776Z,31.10
2018-06-05T11:03:20.793Z,32.20
2018-06-05T11:04:20.839Z,33.30
2018-06-05T11:05:20.848Z,31.70
2018-06-05T11:06:20.868Z,33.40
2018-06-05T11:07:20.896Z,35.90
2018-06-05T11:08:20.912Z,33.80
2018-06-05T11:09:20.940Z,32.90
2018-06-05T11:10:20.967Z,32.70
2018-06-05T11:11:20.984Z,31.80
2018-06-05T11:12:21.018Z,32.20
2018-06-05T11:13:21.045Z,32.90
2018-06-05T11:14:21.059Z,35.90
2018-06-05T11:15:21.096Z,32.00
2018-06-05T11:16:21.121Z,33.20
2018-06-05T11:17:21.127Z,33.70
2018-06-05T11:18:21.199Z,33.90
2018-06-05T11:19:21.177Z,36.00
2018-06-05T11:20:21.196Z,32.40
2018-06-05T11:21:21.220Z,37.30
2018-06-05T11:22:21.248Z,30.90
2018-06-05T11:23:21.280Z,31.10
2018-06-05T11:24:21.303Z,29.80
2018-06-05T11:25:21.336Z,32.80
2018-06-05T11:26:21.335Z,29.70
2018-06-05T11:27:21.370Z,32.00
2018-06-05T11:28:21.412Z,32.50
2018-06-05T11:29:21.409Z,34.50
2018-06-05T11:30:21.452Z,32.80
2018-06-05T11:31:21.461Z,31.40
2018-06-05T11:32:21.493Z,35.10
2018-06-05T11:33:21.507Z,35.00
2018-06-05T11:34:21.539Z,33.70
2018-06-05T11:35:21.557Z,32.90
2018-06-05T11:36:21.591Z,32.50
2018-06-05T11:37:21.615Z,31.80
2018-06-05T11:38:21.630Z,30.80
2018-06-05T11:39:21.674Z,34.80
2018-06-05T11:40:21.682Z,32.40
2018-06-05T11:41:21.700Z,33.90
2018-06-05T11:42:21.725Z,34.70
2018-06-05T11:43:21.751Z,35.20
2018-06-05T11:44:21.774Z,39.10
2018-06-05T11:45:21.791Z,35.50
2018-06-05T11:46:21.818Z,33.50
2018-06-05T11:47:21.848Z,32.40
2018-06-05T11:48:21.885Z,33.30
2018-06-05T11:49:21.895Z,31.70
2018-06-05T11:50:21.922Z,33.50
2018-06-05T11:51:21.936Z,33.90
2018-06-05T11:52:21.969Z,35.30
2018-06-05T11:53:21.984Z,33.20
2018-06-05T11:54:22.005Z,32.60
2018-06-05T11:55:22.053Z,38.50
2018-06-05T11:56:22.053Z,34.20
2018-06-05T11:57:22.077Z,34.50
2018-06-05T11:58:22.103Z,36.80
2018-06-05T11:59:22.159Z,31.20
2018-06-05T12:00:22.151Z,34.20
2018-06-05T12:01:22.175Z,37.90
2018-06-05T12:02:22.207Z,28.60
2018-06-05T12:03:22.231Z,30.90
2018-06-05T12:04:22.247Z,39.90
2018-06-05T12:05:22.271Z,29.30
2018-06-05T12:06:22.292Z,34.30
2018-06-05T12:07:22.319Z,29.70
2018-06-05T12:08:22.348Z,33.30
2018-06-05T12:09:22.374Z,31.70
2018-06-05T12:10:22.420Z,30.80
2018-06-05T12:11:22.430Z,29.60
2018-06-05T12:12:22.452Z,31.80
2018-06-05T12:13:22.471Z,30.70
2018-06-05T12:14:22.498Z,31.40
2018-06-05T12:15:22.536Z,28.60
2018-06-05T12:16:22.542Z,35.80
2018-06-05T12:17:22.569Z,30.70
2018-06-05T12:18:22.597Z,34.90
2018-06-05T12:19:22.612Z,33.00
2018-06-05T12:20:22.638Z,33.20
2018-06-05T12:21:22.664Z,33.50
2018-06-05T12:22:22.684Z,30.00
2018-06-05T12:23:22.707Z,32.00
2018-06-05T12:24:22.753Z,32.50
2018-06-05T12:25:22.799Z,31.90
2018-06-05T12:26:22.801Z,32.80
2018-06-05T12:27:22.808Z,29.90
2018-06-05T12:28:22.835Z,33.10
2018-06-05T12:29:22.867Z,29.30
2018-06-05T12:30:22.887Z,28.40
2018-06-05T12:31:22.902Z,33.00
2018-06-05T12:32:22.928Z,31.70
2018-06-05T12:33:22.951Z,30.20
2018-06-05T12:34:22.979Z,30.40
2018-06-05T12:35:23.003Z,28.40
2018-06-05T12:36:23.026Z,33.90
2018-06-05T12:37:23.060Z,30.30
2018-06-05T12:38:23.080Z,32.20
2018-06-05T12:39:23.107Z,32.60
2018-06-05T12:40:23.130Z,29.80
2018-06-05T12:41:23.163Z,31.70
2018-06-05T12:42:23.166Z,32.10
2018-06-05T12:43:23.211Z,31.40
2018-06-05T12:44:23.226Z,27.60
2018-06-05T12:45:23.244Z,31.60
2018-06-05T12:46:23.303Z,36.00
2018-06-05T12:47:23.294Z,30.90
2018-06-05T12:48:23.325Z,31.30
2018-06-05T12:49:23.346Z,29.00
2018-06-05T12:50:23.363Z,31.80
2018-06-05T12:51:23.408Z,28.30
2018-06-05T12:52:23.427Z,30.70